sensor_id;sensor_type;location;lat;lon;timestamp;temperature;humidity
11617;DHT22;5864;52.998;9.068;2022-12-16T00:01:07;-2.90;99.90
11617;DHT22;5864;52.998;9.068;2022-12-16T00:03:35;-3.00;99.90
11617;DHT22;5864;52.998;9.068;2022-12-16T00:06:03;-3.00;99.90
11617;DHT22;5864;52.998;9.068;2022-12-16T00:08:32;-3.00;99.90
11617;DHT22;5864;52.998;9.068;2022-12-16T00:11:00;-2.90;99.90
11617;DHT22;5864;52.998;9.068;2022-12-16T00:13:29;-3.00;99.90
11617;DHT22;5864;52.998;9.068;2022-12-16T00:15:56;-3.00;99.90
11617;DHT22;5864;52.998;9.068;2022-12-16T00:18:25;-3.00;99.90
11617;DHT22;5864;52.998;9.068;2022-12-16T00:20:53;-3.00;99.90
11617;DHT22;5864;52.998;9.068;2022-12-16T00:23:21;-3.00;99.90
11617;DHT22;5864;52.998;9.068;2022-12-16T00:25:49;-3.00;99.90
11617;DHT22;5864;52.998;9.068;2022-12-16T00:28:17;-3.00;99.90
11617;DHT22;5864;52.998;9.068;2022-12-16T00:30:48;-3.00;99.90
11617;DHT22;5864;52.998;9.068;2022-12-16T00:33:17;-2.90;99.90
11617;DHT22;5864;52.998;9.068;2022-12-16T00:35:46;-2.90;99.90
11617;DHT22;5864;52.998;9.068;2022-12-16T00:38:15;-2.80;99.90
11617;DHT22;5864;52.998;9.068;2022-12-16T00:40:43;-2.80;99.90
11617;DHT22;5864;52.998;9.068;2022-12-16T00:43:10;-2.80;99.90
11617;DHT22;5864;52.998;9.068;2022-12-16T00:45:38;-2.90;99.90
11617;DHT22;5864;52.998;9.068;2022-12-16T00:48:06;-3.00;99.90
11617;DHT22;5864;52.998;9.068;2022-12-16T00:50:34;-3.00;99.90
11617;DHT22;5864;52.998;9.068;2022-12-16T00:53:03;-3.10;99.90
11617;DHT22;5864;52.998;9.068;2022-12-16T00:55:31;-3.10;99.90
11617;DHT22;5864;52.998;9.068;2022-12-16T00:57:58;-3.00;99.90
11617;DHT22;5864;52.998;9.068;2022-12-16T01:00:26;-3.10;99.90
11617;DHT22;5864;52.998;9.068;2022-12-16T01:02:53;-3.10;99.90
11617;DHT22;5864;52.998;9.068;2022-12-16T01:05:24;-3.00;99.90
11617;DHT22;5864;52.998;9.068;2022-12-16T01:07:52;-3.10;99.90
11617;DHT22;5864;52.998;9.068;2022-12-16T01:10:22;-3.10;99.90
11617;DHT22;5864;52.998;9.068;2022-12-16T01:12:50;-3.20;99.90
11617;DHT22;5864;52.998;9.068;2022-12-16T01:15:18;-3.10;99.90
11617;DHT22;5864;52.998;9.068;2022-12-16T01:17:46;-3.10;99.90
11617;DHT22;5864;52.998;9.068;2022-12-16T01:20:13;-3.10;99.90
11617;DHT22;5864;52.998;9.068;2022-12-16T01:22:41;-3.10;99.90
11617;DHT22;5864;52.998;9.068;2022-12-16T01:25:10;-3.10;99.90
11617;DHT22;5864;52.998;9.068;2022-12-16T01:27:39;-3.10;99.90
11617;DHT22;5864;52.998;9.068;2022-12-16T01:30:08;-3.10;99.90
11617;DHT22;5864;52.998;9.068;2022-12-16T01:32:36;-3.00;99.90
11617;DHT22;5864;52.998;9.068;2022-12-16T01:35:04;-3.00;99.90
11617;DHT22;5864;52.998;9.068;2022-12-16T01:37:32;-3.00;99.90
11617;DHT22;5864;52.998;9.068;2022-12-16T01:39:59;-3.00;99.90
11617;DHT22;5864;52.998;9.068;2022-12-16T01:42:27;-2.90;99.90
11617;DHT22;5864;52.998;9.068;2022-12-16T01:45:31;-2.90;99.90
11617;DHT22;5864;52.998;9.068;2022-12-16T01:48:04;-2.90;99.90
11617;DHT22;5864;52.998;9.068;2022-12-16T01:50:33;-2.90;99.90
11617;DHT22;5864;52.998;9.068;2022-12-16T01:53:02;-2.80;99.90
11617;DHT22;5864;52.998;9.068;2022-12-16T01:55:36;-2.80;99.90
11617;DHT22;5864;52.998;9.068;2022-12-16T01:58:06;-2.70;99.90
11617;DHT22;5864;52.998;9.068;2022-12-16T02:00:37;-2.70;99.90
11617;DHT22;5864;52.998;9.068;2022-12-16T02:03:05;-2.70;99.90
11617;DHT22;5864;52.998;9.068;2022-12-16T02:05:37;-2.70;99.90
11617;DHT22;5864;52.998;9.068;2022-12-16T02:08:11;-2.70;99.90
11617;DHT22;5864;52.998;9.068;2022-12-16T02:10:47;-2.70;99.90
11617;DHT22;5864;52.998;9.068;2022-12-16T02:13:21;-2.80;99.90
11617;DHT22;5864;52.998;9.068;2022-12-16T02:15:57;-2.80;99.90
11617;DHT22;5864;52.998;9.068;2022-12-16T02:18:36;-2.80;99.90
11617;DHT22;5864;52.998;9.068;2022-12-16T02:21:29;-2.90;99.90
11617;DHT22;5864;52.998;9.068;2022-12-16T02:24:21;-2.90;99.90
11617;DHT22;5864;52.998;9.068;2022-12-16T02:30:24;-2.90;99.90
11617;DHT22;5864;52.998;9.068;2022-12-16T02:32:58;-3.00;99.90
11617;DHT22;5864;52.998;9.068;2022-12-16T02:35:34;-3.10;99.90
11617;DHT22;5864;52.998;9.068;2022-12-16T02:38:13;-3.20;99.90
11617;DHT22;5864;52.998;9.068;2022-12-16T02:40:50;-3.30;99.90
11617;DHT22;5864;52.998;9.068;2022-12-16T02:43:31;-3.40;99.90
11617;DHT22;5864;52.998;9.068;2022-12-16T02:46:03;-3.50;99.90
11617;DHT22;5864;52.998;9.068;2022-12-16T02:48:32;-3.70;99.90
11617;DHT22;5864;52.998;9.068;2022-12-16T02:51:00;-3.70;99.90
11617;DHT22;5864;52.998;9.068;2022-12-16T02:53:28;-3.90;99.90
11617;DHT22;5864;52.998;9.068;2022-12-16T02:56:03;-4.00;99.90
11617;DHT22;5864;52.998;9.068;2022-12-16T02:58:38;-4.10;99.90
11617;DHT22;5864;52.998;9.068;2022-12-16T03:01:16;-4.20;99.90
11617;DHT22;5864;52.998;9.068;2022-12-16T03:03:49;-4.20;99.90
11617;DHT22;5864;52.998;9.068;2022-12-16T03:06:21;-4.30;99.90
11617;DHT22;5864;52.998;9.068;2022-12-16T03:08:52;-4.30;99.90
11617;DHT22;5864;52.998;9.068;2022-12-16T03:11:20;-4.20;99.90
11617;DHT22;5864;52.998;9.068;2022-12-16T03:13:54;-4.20;99.90
11617;DHT22;5864;52.998;9.068;2022-12-16T03:16:26;-4.10;99.90
11617;DHT22;5864;52.998;9.068;2022-12-16T03:18:59;-4.20;99.90
11617;DHT22;5864;52.998;9.068;2022-12-16T03:21:31;-4.10;99.90
11617;DHT22;5864;52.998;9.068;2022-12-16T03:24:03;-4.00;99.90
11617;DHT22;5864;52.998;9.068;2022-12-16T03:26:34;-4.10;99.90
11617;DHT22;5864;52.998;9.068;2022-12-16T03:29:06;-4.30;99.90
11617;DHT22;5864;52.998;9.068;2022-12-16T03:31:39;-4.30;99.90
11617;DHT22;5864;52.998;9.068;2022-12-16T03:34:13;-4.20;99.90
11617;DHT22;5864;52.998;9.068;2022-12-16T03:36:46;-4.20;99.90
11617;DHT22;5864;52.998;9.068;2022-12-16T03:39:17;-4.20;99.90
11617;DHT22;5864;52.998;9.068;2022-12-16T03:41:46;-5.60;99.90
11617;DHT22;5864;52.998;9.068;2022-12-16T03:44:16;-4.30;99.90
11617;DHT22;5864;52.998;9.068;2022-12-16T03:46:46;-4.30;99.90
11617;DHT22;5864;52.998;9.068;2022-12-16T03:49:13;-4.40;99.90
11617;DHT22;5864;52.998;9.068;2022-12-16T03:51:41;-4.40;99.90
11617;DHT22;5864;52.998;9.068;2022-12-16T03:54:08;-4.40;99.90
11617;DHT22;5864;52.998;9.068;2022-12-16T03:56:36;-4.40;99.90
11617;DHT22;5864;52.998;9.068;2022-12-16T03:59:06;-4.40;99.90
11617;DHT22;5864;52.998;9.068;2022-12-16T04:01:33;-4.40;99.90
11617;DHT22;5864;52.998;9.068;2022-12-16T04:04:04;-4.30;99.90
11617;DHT22;5864;52.998;9.068;2022-12-16T04:06:31;-4.20;99.90
11617;DHT22;5864;52.998;9.068;2022-12-16T04:08:59;-4.20;99.90
11617;DHT22;5864;52.998;9.068;2022-12-16T04:11:26;-4.20;99.90
11617;DHT22;5864;52.998;9.068;2022-12-16T04:14:11;-4.20;99.90
11617;DHT22;5864;52.998;9.068;2022-12-16T04:16:56;-4.30;99.90
11617;DHT22;5864;52.998;9.068;2022-12-16T04:19:54;-4.30;99.90
11617;DHT22;5864;52.998;9.068;2022-12-16T04:22:47;-4.30;99.90
11617;DHT22;5864;52.998;9.068;2022-12-16T04:25:34;-4.30;99.90
11617;DHT22;5864;52.998;9.068;2022-12-16T04:28:02;-4.30;99.90
11617;DHT22;5864;52.998;9.068;2022-12-16T04:30:31;-4.30;99.90
11617;DHT22;5864;52.998;9.068;2022-12-16T04:33:03;-4.20;99.90
11617;DHT22;5864;52.998;9.068;2022-12-16T04:35:49;-4.20;99.90
11617;DHT22;5864;52.998;9.068;2022-12-16T04:38:34;-4.20;99.90
11617;DHT22;5864;52.998;9.068;2022-12-16T04:41:19;-4.20;99.90
11617;DHT22;5864;52.998;9.068;2022-12-16T04:44:04;-4.30;99.90
11617;DHT22;5864;52.998;9.068;2022-12-16T04:46:49;-4.40;99.90
11617;DHT22;5864;52.998;9.068;2022-12-16T04:49:34;-4.30;99.90
11617;DHT22;5864;52.998;9.068;2022-12-16T04:52:21;-4.30;99.90
11617;DHT22;5864;52.998;9.068;2022-12-16T04:55:07;-4.90;99.90
11617;DHT22;5864;52.998;9.068;2022-12-16T04:57:53;-4.30;99.90
11617;DHT22;5864;52.998;9.068;2022-12-16T05:00:39;-4.30;99.90
11617;DHT22;5864;52.998;9.068;2022-12-16T05:03:36;-4.30;99.90
11617;DHT22;5864;52.998;9.068;2022-12-16T05:06:20;-4.30;99.90
11617;DHT22;5864;52.998;9.068;2022-12-16T05:09:07;-4.40;99.90
11617;DHT22;5864;52.998;9.068;2022-12-16T05:11:52;-4.30;99.90
11617;DHT22;5864;52.998;9.068;2022-12-16T05:14:37;-4.40;99.90
11617;DHT22;5864;52.998;9.068;2022-12-16T05:17:22;-4.50;99.90
11617;DHT22;5864;52.998;9.068;2022-12-16T05:20:08;-4.40;99.90
11617;DHT22;5864;52.998;9.068;2022-12-16T05:22:54;-4.40;99.90
11617;DHT22;5864;52.998;9.068;2022-12-16T05:25:40;-4.40;99.90
11617;DHT22;5864;52.998;9.068;2022-12-16T05:28:25;-4.50;99.90
11617;DHT22;5864;52.998;9.068;2022-12-16T05:31:10;-4.60;99.90
11617;DHT22;5864;52.998;9.068;2022-12-16T05:33:55;-4.60;99.90
11617;DHT22;5864;52.998;9.068;2022-12-16T05:36:40;-4.70;99.90
11617;DHT22;5864;52.998;9.068;2022-12-16T05:39:24;-4.60;99.90
11617;DHT22;5864;52.998;9.068;2022-12-16T05:42:11;-4.50;99.90
11617;DHT22;5864;52.998;9.068;2022-12-16T05:44:56;-4.50;99.90
11617;DHT22;5864;52.998;9.068;2022-12-16T05:47:40;-4.50;99.90
11617;DHT22;5864;52.998;9.068;2022-12-16T05:50:25;-4.40;99.90
11617;DHT22;5864;52.998;9.068;2022-12-16T05:53:10;-4.30;99.90
11617;DHT22;5864;52.998;9.068;2022-12-16T05:55:55;-4.30;99.90
11617;DHT22;5864;52.998;9.068;2022-12-16T05:58:41;-4.20;99.90
11617;DHT22;5864;52.998;9.068;2022-12-16T06:01:26;-4.20;99.90
11617;DHT22;5864;52.998;9.068;2022-12-16T06:04:11;-4.20;99.90
11617;DHT22;5864;52.998;9.068;2022-12-16T06:06:56;-4.20;99.90
11617;DHT22;5864;52.998;9.068;2022-12-16T06:09:41;-4.20;99.90
11617;DHT22;5864;52.998;9.068;2022-12-16T06:12:26;-4.10;99.90
11617;DHT22;5864;52.998;9.068;2022-12-16T06:15:12;-4.10;99.90
11617;DHT22;5864;52.998;9.068;2022-12-16T06:17:56;-4.00;99.90
11617;DHT22;5864;52.998;9.068;2022-12-16T06:20:41;-4.00;99.90
11617;DHT22;5864;52.998;9.068;2022-12-16T06:23:27;-3.90;99.90
11617;DHT22;5864;52.998;9.068;2022-12-16T06:26:12;-3.90;99.90
11617;DHT22;5864;52.998;9.068;2022-12-16T06:28:57;-3.90;99.90
11617;DHT22;5864;52.998;9.068;2022-12-16T06:31:43;-3.90;99.90
11617;DHT22;5864;52.998;9.068;2022-12-16T06:34:27;-3.90;99.90
11617;DHT22;5864;52.998;9.068;2022-12-16T06:37:12;-3.80;99.90
11617;DHT22;5864;52.998;9.068;2022-12-16T06:39:57;-3.90;99.90
11617;DHT22;5864;52.998;9.068;2022-12-16T06:42:42;-3.90;99.90
11617;DHT22;5864;52.998;9.068;2022-12-16T06:45:27;-4.00;99.90
11617;DHT22;5864;52.998;9.068;2022-12-16T06:48:14;-3.90;99.90
11617;DHT22;5864;52.998;9.068;2022-12-16T06:50:59;-3.90;99.90
11617;DHT22;5864;52.998;9.068;2022-12-16T06:53:44;-3.90;99.90
11617;DHT22;5864;52.998;9.068;2022-12-16T06:56:29;-3.90;99.90
11617;DHT22;5864;52.998;9.068;2022-12-16T06:59:14;-4.00;99.90
11617;DHT22;5864;52.998;9.068;2022-12-16T07:01:58;-4.00;99.90
11617;DHT22;5864;52.998;9.068;2022-12-16T07:04:46;-4.10;99.90
11617;DHT22;5864;52.998;9.068;2022-12-16T07:07:30;-4.10;99.90
11617;DHT22;5864;52.998;9.068;2022-12-16T07:10:15;-4.10;99.90
11617;DHT22;5864;52.998;9.068;2022-12-16T07:13:00;-4.10;99.90
11617;DHT22;5864;52.998;9.068;2022-12-16T07:15:45;-4.10;99.90
11617;DHT22;5864;52.998;9.068;2022-12-16T07:18:30;-4.10;99.90
11617;DHT22;5864;52.998;9.068;2022-12-16T07:21:16;-4.10;99.90
11617;DHT22;5864;52.998;9.068;2022-12-16T07:24:01;-4.10;99.90
11617;DHT22;5864;52.998;9.068;2022-12-16T07:26:46;-4.00;99.90
11617;DHT22;5864;52.998;9.068;2022-12-16T07:29:31;-4.00;99.90
11617;DHT22;5864;52.998;9.068;2022-12-16T07:32:15;-4.00;99.90
11617;DHT22;5864;52.998;9.068;2022-12-16T07:35:00;-4.00;99.90
11617;DHT22;5864;52.998;9.068;2022-12-16T07:37:46;-4.00;99.90
11617;DHT22;5864;52.998;9.068;2022-12-16T07:40:32;-4.00;99.90
11617;DHT22;5864;52.998;9.068;2022-12-16T07:43:16;-4.00;99.90
11617;DHT22;5864;52.998;9.068;2022-12-16T07:46:02;-3.90;99.90
11617;DHT22;5864;52.998;9.068;2022-12-16T07:48:47;-3.90;99.90
11617;DHT22;5864;52.998;9.068;2022-12-16T07:51:38;-3.80;99.90
11617;DHT22;5864;52.998;9.068;2022-12-16T07:54:24;-3.70;99.90
11617;DHT22;5864;52.998;9.068;2022-12-16T07:57:08;-3.70;99.90
11617;DHT22;5864;52.998;9.068;2022-12-16T07:59:54;-3.70;99.90
11617;DHT22;5864;52.998;9.068;2022-12-16T08:02:38;-3.60;99.90
11617;DHT22;5864;52.998;9.068;2022-12-16T08:05:23;-3.60;99.90
11617;DHT22;5864;52.998;9.068;2022-12-16T08:08:08;-3.60;99.90
11617;DHT22;5864;52.998;9.068;2022-12-16T08:10:54;-3.50;99.90
11617;DHT22;5864;52.998;9.068;2022-12-16T08:13:39;-3.40;99.90
11617;DHT22;5864;52.998;9.068;2022-12-16T08:16:24;-3.50;99.90
11617;DHT22;5864;52.998;9.068;2022-12-16T08:19:09;-3.50;99.90
11617;DHT22;5864;52.998;9.068;2022-12-16T08:21:54;-3.40;99.90
11617;DHT22;5864;52.998;9.068;2022-12-16T08:24:47;-3.40;99.90
11617;DHT22;5864;52.998;9.068;2022-12-16T08:27:34;-3.20;99.90
11617;DHT22;5864;52.998;9.068;2022-12-16T08:30:19;-3.40;99.90
11617;DHT22;5864;52.998;9.068;2022-12-16T08:33:04;-3.50;99.90
11617;DHT22;5864;52.998;9.068;2022-12-16T08:35:56;-3.50;99.90
11617;DHT22;5864;52.998;9.068;2022-12-16T08:38:41;-3.50;99.90
11617;DHT22;5864;52.998;9.068;2022-12-16T08:41:26;-3.40;99.90
11617;DHT22;5864;52.998;9.068;2022-12-16T08:44:13;-3.30;99.90
11617;DHT22;5864;52.998;9.068;2022-12-16T08:46:58;-3.20;99.90
11617;DHT22;5864;52.998;9.068;2022-12-16T08:49:43;-3.30;99.90
11617;DHT22;5864;52.998;9.068;2022-12-16T08:52:27;-3.20;99.90
11617;DHT22;5864;52.998;9.068;2022-12-16T08:55:12;-3.00;99.90
11617;DHT22;5864;52.998;9.068;2022-12-16T08:57:57;-2.90;99.90
11617;DHT22;5864;52.998;9.068;2022-12-16T09:00:43;-2.80;99.90
11617;DHT22;5864;52.998;9.068;2022-12-16T09:03:28;-2.50;99.90
11617;DHT22;5864;52.998;9.068;2022-12-16T09:06:13;-2.40;99.90
11617;DHT22;5864;52.998;9.068;2022-12-16T09:08:58;-2.40;99.90
11617;DHT22;5864;52.998;9.068;2022-12-16T09:11:43;-2.20;99.90
11617;DHT22;5864;52.998;9.068;2022-12-16T09:14:28;-1.90;99.90
11617;DHT22;5864;52.998;9.068;2022-12-16T09:17:14;-1.70;99.90
11617;DHT22;5864;52.998;9.068;2022-12-16T09:19:59;-1.50;99.90
11617;DHT22;5864;52.998;9.068;2022-12-16T09:22:44;-1.10;99.90
11617;DHT22;5864;52.998;9.068;2022-12-16T09:25:44;-0.70;99.70
11617;DHT22;5864;52.998;9.068;2022-12-16T09:28:29;-0.40;78.50
11617;DHT22;5864;52.998;9.068;2022-12-16T09:31:13;-0.40;67.00
11617;DHT22;5864;52.998;9.068;2022-12-16T09:34:14;-0.40;76.30
11617;DHT22;5864;52.998;9.068;2022-12-16T09:36:59;-0.20;71.20
11617;DHT22;5864;52.998;9.068;2022-12-16T09:39:43;-0.30;65.00
11617;DHT22;5864;52.998;9.068;2022-12-16T09:42:47;-0.40;75.90
11617;DHT22;5864;52.998;9.068;2022-12-16T09:45:38;0.10;84.50
11617;DHT22;5864;52.998;9.068;2022-12-16T09:48:30;0.40;73.70
11617;DHT22;5864;52.998;9.068;2022-12-16T09:51:19;0.30;61.50
11617;DHT22;5864;52.998;9.068;2022-12-16T09:54:08;0.20;69.70
11617;DHT22;5864;52.998;9.068;2022-12-16T09:56:56;0.50;67.90
11617;DHT22;5864;52.998;9.068;2022-12-16T09:59:45;0.60;53.30
11617;DHT22;5864;52.998;9.068;2022-12-16T10:02:32;0.60;48.30
11617;DHT22;5864;52.998;9.068;2022-12-16T10:05:23;0.40;52.10
11617;DHT22;5864;52.998;9.068;2022-12-16T10:08:18;0.30;66.30
11617;DHT22;5864;52.998;9.068;2022-12-16T10:11:21;0.30;70.90
11617;DHT22;5864;52.998;9.068;2022-12-16T10:14:10;0.30;56.40
11617;DHT22;5864;52.998;9.068;2022-12-16T10:17:03;0.20;60.50
11617;DHT22;5864;52.998;9.068;2022-12-16T10:19:54;0.20;70.10
11617;DHT22;5864;52.998;9.068;2022-12-16T10:22:44;0.10;66.60
11617;DHT22;5864;52.998;9.068;2022-12-16T10:25:38;0.20;68.30
11617;DHT22;5864;52.998;9.068;2022-12-16T10:28:41;0.10;71.60
11617;DHT22;5864;52.998;9.068;2022-12-16T10:31:28;0.20;80.60
11617;DHT22;5864;52.998;9.068;2022-12-16T10:34:14;0.10;76.70
11617;DHT22;5864;52.998;9.068;2022-12-16T10:37:01;-0.10;85.00
11617;DHT22;5864;52.998;9.068;2022-12-16T10:39:50;-0.20;88.00
11617;DHT22;5864;52.998;9.068;2022-12-16T10:42:43;-0.30;87.90
11617;DHT22;5864;52.998;9.068;2022-12-16T10:45:34;-0.40;89.50
11617;DHT22;5864;52.998;9.068;2022-12-16T10:48:23;-0.40;93.10
11617;DHT22;5864;52.998;9.068;2022-12-16T10:51:13;-0.50;97.70
11617;DHT22;5864;52.998;9.068;2022-12-16T10:57:07;0.80;99.90
11617;DHT22;5864;52.998;9.068;2022-12-16T11:00:12;-0.30;99.00
11617;DHT22;5864;52.998;9.068;2022-12-16T11:03:16;-0.20;96.00
11617;DHT22;5864;52.998;9.068;2022-12-16T11:06:02;-0.30;93.60
11617;DHT22;5864;52.998;9.068;2022-12-16T11:08:46;-0.40;99.90
11617;DHT22;5864;52.998;9.068;2022-12-16T11:11:32;-0.30;99.90
11617;DHT22;5864;52.998;9.068;2022-12-16T11:14:20;-0.20;99.70
11617;DHT22;5864;52.998;9.068;2022-12-16T11:17:16;-0.40;99.90
11617;DHT22;5864;52.998;9.068;2022-12-16T11:20:13;-0.30;99.90
11617;DHT22;5864;52.998;9.068;2022-12-16T11:23:22;-0.40;99.90
11617;DHT22;5864;52.998;9.068;2022-12-16T11:26:11;-0.30;99.90
11617;DHT22;5864;52.998;9.068;2022-12-16T11:29:10;-0.40;99.90
11617;DHT22;5864;52.998;9.068;2022-12-16T11:32:00;-0.30;99.90
11617;DHT22;5864;52.998;9.068;2022-12-16T11:34:53;-0.30;99.90
11617;DHT22;5864;52.998;9.068;2022-12-16T11:37:40;-0.30;99.90
11617;DHT22;5864;52.998;9.068;2022-12-16T11:40:27;-0.50;99.90
11617;DHT22;5864;52.998;9.068;2022-12-16T11:43:14;-0.50;99.90
11617;DHT22;5864;52.998;9.068;2022-12-16T11:46:03;-0.70;99.90
11617;DHT22;5864;52.998;9.068;2022-12-16T11:48:53;-0.60;99.90
11617;DHT22;5864;52.998;9.068;2022-12-16T11:51:44;-0.60;99.90
11617;DHT22;5864;52.998;9.068;2022-12-16T11:54:32;-0.60;99.90
11617;DHT22;5864;52.998;9.068;2022-12-16T11:57:22;-0.50;99.90
11617;DHT22;5864;52.998;9.068;2022-12-16T12:00:13;-0.40;99.90
11617;DHT22;5864;52.998;9.068;2022-12-16T12:03:05;-0.40;99.90
11617;DHT22;5864;52.998;9.068;2022-12-16T12:05:56;-0.20;99.90
11617;DHT22;5864;52.998;9.068;2022-12-16T12:08:51;-0.90;99.90
11617;DHT22;5864;52.998;9.068;2022-12-16T12:11:43;-0.20;99.90
11617;DHT22;5864;52.998;9.068;2022-12-16T12:14:33;-0.10;99.90
11617;DHT22;5864;52.998;9.068;2022-12-16T12:17:26;-0.10;99.90
11617;DHT22;5864;52.998;9.068;2022-12-16T12:20:39;0.50;99.90
11617;DHT22;5864;52.998;9.068;2022-12-16T12:23:35;-0.10;99.90
11617;DHT22;5864;52.998;9.068;2022-12-16T12:26:29;-0.10;99.90
11617;DHT22;5864;52.998;9.068;2022-12-16T12:29:19;-0.10;99.90
11617;DHT22;5864;52.998;9.068;2022-12-16T12:32:16;0.00;99.90
11617;DHT22;5864;52.998;9.068;2022-12-16T12:35:09;0.10;99.90
11617;DHT22;5864;52.998;9.068;2022-12-16T12:38:03;0.00;99.90
11617;DHT22;5864;52.998;9.068;2022-12-16T12:40:56;0.00;99.90
11617;DHT22;5864;52.998;9.068;2022-12-16T12:43:53;0.00;99.90
11617;DHT22;5864;52.998;9.068;2022-12-16T12:46:44;0.00;99.90
11617;DHT22;5864;52.998;9.068;2022-12-16T12:49:37;0.00;99.90
11617;DHT22;5864;52.998;9.068;2022-12-16T12:52:45;0.10;99.90
11617;DHT22;5864;52.998;9.068;2022-12-16T12:55:41;0.10;99.90
11617;DHT22;5864;52.998;9.068;2022-12-16T12:58:29;0.10;99.90
11617;DHT22;5864;52.998;9.068;2022-12-16T13:01:19;0.20;99.90
11617;DHT22;5864;52.998;9.068;2022-12-16T13:04:11;0.20;99.90
11617;DHT22;5864;52.998;9.068;2022-12-16T13:06:58;0.10;99.90
11617;DHT22;5864;52.998;9.068;2022-12-16T13:09:44;0.10;99.90
11617;DHT22;5864;52.998;9.068;2022-12-16T13:13:19;0.20;99.90
11617;DHT22;5864;52.998;9.068;2022-12-16T13:16:10;0.20;99.90
11617;DHT22;5864;52.998;9.068;2022-12-16T13:22:28;0.10;99.90
11617;DHT22;5864;52.998;9.068;2022-12-16T13:25:35;0.00;99.90
11617;DHT22;5864;52.998;9.068;2022-12-16T13:28:22;0.00;99.90
11617;DHT22;5864;52.998;9.068;2022-12-16T13:31:09;0.00;99.90
11617;DHT22;5864;52.998;9.068;2022-12-16T13:34:01;0.00;99.90
11617;DHT22;5864;52.998;9.068;2022-12-16T13:36:53;-0.10;99.90
11617;DHT22;5864;52.998;9.068;2022-12-16T13:39:42;0.10;99.90
11617;DHT22;5864;52.998;9.068;2022-12-16T13:42:48;0.10;99.90
11617;DHT22;5864;52.998;9.068;2022-12-16T13:45:42;0.00;99.90
11617;DHT22;5864;52.998;9.068;2022-12-16T13:48:34;0.10;99.90
11617;DHT22;5864;52.998;9.068;2022-12-16T13:55:12;0.10;99.90
11617;DHT22;5864;52.998;9.068;2022-12-16T13:58:02;0.10;99.90
11617;DHT22;5864;52.998;9.068;2022-12-16T14:00:57;0.20;99.90
11617;DHT22;5864;52.998;9.068;2022-12-16T14:03:46;0.20;99.90
11617;DHT22;5864;52.998;9.068;2022-12-16T14:06:31;0.10;99.90
11617;DHT22;5864;52.998;9.068;2022-12-16T14:09:31;0.10;99.90
11617;DHT22;5864;52.998;9.068;2022-12-16T14:12:44;0.10;99.90
11617;DHT22;5864;52.998;9.068;2022-12-16T14:15:35;0.00;99.90
11617;DHT22;5864;52.998;9.068;2022-12-16T14:18:30;0.00;99.90
11617;DHT22;5864;52.998;9.068;2022-12-16T14:21:26;0.00;99.90
11617;DHT22;5864;52.998;9.068;2022-12-16T14:24:21;0.10;99.90
11617;DHT22;5864;52.998;9.068;2022-12-16T14:27:15;0.00;99.90
11617;DHT22;5864;52.998;9.068;2022-12-16T14:30:10;0.00;99.90
11617;DHT22;5864;52.998;9.068;2022-12-16T14:32:58;0.00;99.90
11617;DHT22;5864;52.998;9.068;2022-12-16T14:35:48;0.10;99.90
11617;DHT22;5864;52.998;9.068;2022-12-16T14:38:34;0.10;99.90
11617;DHT22;5864;52.998;9.068;2022-12-16T14:41:21;0.00;99.90
11617;DHT22;5864;52.998;9.068;2022-12-16T14:44:16;0.00;99.90
11617;DHT22;5864;52.998;9.068;2022-12-16T14:47:03;-0.10;99.90
11617;DHT22;5864;52.998;9.068;2022-12-16T14:49:50;-0.20;99.90
11617;DHT22;5864;52.998;9.068;2022-12-16T14:52:36;-0.20;99.90
11617;DHT22;5864;52.998;9.068;2022-12-16T14:55:28;-0.30;99.90
11617;DHT22;5864;52.998;9.068;2022-12-16T14:58:15;-0.30;99.90
11617;DHT22;5864;52.998;9.068;2022-12-16T15:01:03;-0.40;99.90
11617;DHT22;5864;52.998;9.068;2022-12-16T15:03:52;-0.50;99.90
11617;DHT22;5864;52.998;9.068;2022-12-16T15:06:39;-0.50;99.90
11617;DHT22;5864;52.998;9.068;2022-12-16T15:09:28;-0.50;99.90
11617;DHT22;5864;52.998;9.068;2022-12-16T15:12:15;-0.60;99.90
11617;DHT22;5864;52.998;9.068;2022-12-16T15:15:03;-0.60;99.90
11617;DHT22;5864;52.998;9.068;2022-12-16T15:17:51;-0.70;99.90
11617;DHT22;5864;52.998;9.068;2022-12-16T15:20:42;-0.80;99.90
11617;DHT22;5864;52.998;9.068;2022-12-16T15:23:32;-0.80;99.90
11617;DHT22;5864;52.998;9.068;2022-12-16T15:26:19;-0.40;99.90
11617;DHT22;5864;52.998;9.068;2022-12-16T15:29:30;-0.90;99.90
11617;DHT22;5864;52.998;9.068;2022-12-16T15:32:28;-1.00;99.90
11617;DHT22;5864;52.998;9.068;2022-12-16T15:35:24;-1.00;99.90
11617;DHT22;5864;52.998;9.068;2022-12-16T15:38:18;-1.00;99.90
11617;DHT22;5864;52.998;9.068;2022-12-16T15:41:21;-1.00;99.90
11617;DHT22;5864;52.998;9.068;2022-12-16T15:44:14;-1.10;99.90
11617;DHT22;5864;52.998;9.068;2022-12-16T15:46:59;-1.20;99.90
11617;DHT22;5864;52.998;9.068;2022-12-16T15:49:45;-1.20;99.90
11617;DHT22;5864;52.998;9.068;2022-12-16T15:52:34;-1.20;99.90
11617;DHT22;5864;52.998;9.068;2022-12-16T15:55:30;-1.20;99.90
11617;DHT22;5864;52.998;9.068;2022-12-16T15:58:20;-1.30;99.90
11617;DHT22;5864;52.998;9.068;2022-12-16T16:01:07;-1.30;99.90
11617;DHT22;5864;52.998;9.068;2022-12-16T16:03:54;-1.30;99.90
11617;DHT22;5864;52.998;9.068;2022-12-16T16:06:46;-1.40;99.90
11617;DHT22;5864;52.998;9.068;2022-12-16T16:09:32;-1.40;99.90
11617;DHT22;5864;52.998;9.068;2022-12-16T16:12:20;-1.50;99.90
11617;DHT22;5864;52.998;9.068;2022-12-16T16:15:07;-1.50;99.90
11617;DHT22;5864;52.998;9.068;2022-12-16T16:17:54;-1.50;99.90
11617;DHT22;5864;52.998;9.068;2022-12-16T16:20:40;-1.60;99.90
11617;DHT22;5864;52.998;9.068;2022-12-16T16:23:25;-1.60;99.90
11617;DHT22;5864;52.998;9.068;2022-12-16T16:26:10;-1.70;99.90
11617;DHT22;5864;52.998;9.068;2022-12-16T16:28:57;-1.70;99.90
11617;DHT22;5864;52.998;9.068;2022-12-16T16:31:42;-1.80;99.90
11617;DHT22;5864;52.998;9.068;2022-12-16T16:34:27;-1.80;99.90
11617;DHT22;5864;52.998;9.068;2022-12-16T16:37:15;-1.90;99.90
11617;DHT22;5864;52.998;9.068;2022-12-16T16:40:01;-1.90;99.90
11617;DHT22;5864;52.998;9.068;2022-12-16T16:42:59;-1.90;99.90
11617;DHT22;5864;52.998;9.068;2022-12-16T16:45:51;-1.90;99.90
11617;DHT22;5864;52.998;9.068;2022-12-16T16:48:37;-2.00;99.90
11617;DHT22;5864;52.998;9.068;2022-12-16T16:51:24;-2.00;99.90
11617;DHT22;5864;52.998;9.068;2022-12-16T16:54:09;-2.10;99.90
11617;DHT22;5864;52.998;9.068;2022-12-16T16:57:09;-2.10;99.90
11617;DHT22;5864;52.998;9.068;2022-12-16T16:59:54;-2.20;99.90
11617;DHT22;5864;52.998;9.068;2022-12-16T17:02:40;-2.10;99.90
11617;DHT22;5864;52.998;9.068;2022-12-16T17:05:25;-2.10;99.90
11617;DHT22;5864;52.998;9.068;2022-12-16T17:08:09;-2.10;99.90
11617;DHT22;5864;52.998;9.068;2022-12-16T17:10:54;-2.10;99.90
11617;DHT22;5864;52.998;9.068;2022-12-16T17:13:40;-2.20;99.90
11617;DHT22;5864;52.998;9.068;2022-12-16T17:16:24;-2.20;99.90
11617;DHT22;5864;52.998;9.068;2022-12-16T17:19:11;-2.20;99.90
11617;DHT22;5864;52.998;9.068;2022-12-16T17:22:07;-2.20;99.90
11617;DHT22;5864;52.998;9.068;2022-12-16T17:24:52;-2.10;99.90
11617;DHT22;5864;52.998;9.068;2022-12-16T17:27:37;-2.10;99.90
11617;DHT22;5864;52.998;9.068;2022-12-16T17:30:29;-2.10;99.90
11617;DHT22;5864;52.998;9.068;2022-12-16T17:33:14;-2.10;99.90
11617;DHT22;5864;52.998;9.068;2022-12-16T17:36:13;-2.20;99.90
11617;DHT22;5864;52.998;9.068;2022-12-16T17:38:59;-2.10;99.90
11617;DHT22;5864;52.998;9.068;2022-12-16T17:41:44;-2.10;99.90
11617;DHT22;5864;52.998;9.068;2022-12-16T17:44:29;-2.00;99.90
11617;DHT22;5864;52.998;9.068;2022-12-16T17:47:14;-2.00;99.90
11617;DHT22;5864;52.998;9.068;2022-12-16T17:50:00;-2.00;99.90